Time;durP1;ratioP1;P1;durP2;ratioP2;P2;SDS_P1;SDS_P2;PMS_P1;PMS_P2;Temp;Humidity;BMP_temperature;BMP_pressure;BME280_temperature;BME280_humidity;BME280_pressure;Samples;Min_cycle;Max_cycle;Signal;HPM_P1;HPM_P2
2022/07/08 00:01:29;;;;;;;29.00;13.77;;;;;;;25.96;70.95;100279.66;5040512;28;20115;-59
2022/07/08 00:04:00;;;;;;;38.80;15.23;;;;;;;26.16;70.85;100284.28;5044586;28;20065;-60
2022/07/08 00:06:31;;;;;;;25.80;13.80;;;;;;;26.16;70.72;100257.50;5042176;28;20341;-60
2022/07/08 00:09:01;;;;;;;30.70;12.87;;;;;;;26.49;70.59;100287.84;5039192;28;20302;-62
2022/07/08 00:11:32;;;;;;;27.07;13.53;;;;;;;26.63;69.49;100292.97;5043951;28;20309;-59
2022/07/08 00:14:05;;;;;;;27.20;13.10;;;;;;;26.71;68.71;100284.28;5053758;28;20120;-59
2022/07/08 00:16:40;;;;;;;32.33;13.63;;;;;;;26.80;68.80;100278.13;5045573;28;20265;-61
2022/07/08 00:19:11;;;;;;;37.80;13.17;;;;;;;26.91;68.64;100271.88;5042746;28;20278;-61
2022/07/08 00:21:41;;;;;;;31.47;13.13;;;;;;;27.01;67.98;100271.91;5047467;28;20067;-62
2022/07/08 00:24:12;;;;;;;22.50;11.97;;;;;;;27.19;66.43;100266.84;5038810;28;20061;-61
2022/07/08 00:26:43;;;;;;;21.37;11.57;;;;;;;27.20;65.98;100279.28;5038973;28;20067;-61
2022/07/08 00:29:16;;;;;;;21.37;11.30;;;;;;;27.26;66.12;100268.03;5038573;28;20075;-61
2022/07/08 00:31:46;;;;;;;26.53;12.83;;;;;;;27.24;65.92;100275.34;5039021;28;20117;-60
2022/07/08 00:34:17;;;;;;;22.10;12.30;;;;;;;27.27;66.39;100265.19;5038918;28;20112;-62
2022/07/08 00:36:48;;;;;;;31.40;13.07;;;;;;;27.42;66.43;100272.91;5040452;28;20053;-61
2022/07/08 00:39:18;;;;;;;23.60;11.77;;;;;;;27.48;66.25;100262.50;5061509;28;20693;-60
2022/07/08 00:41:49;;;;;;;21.30;12.10;;;;;;;27.50;66.06;100267.72;5064411;28;20062;-60
2022/07/08 00:44:21;;;;;;;23.33;12.33;;;;;;;27.62;66.11;100272.00;5061997;28;20260;-62
2022/07/08 00:46:52;;;;;;;39.57;12.67;;;;;;;27.71;65.38;100265.00;5062949;28;20071;-61
2022/07/08 00:49:22;;;;;;;52.33;13.47;;;;;;;27.79;64.57;100265.16;5063449;28;20083;-62
2022/07/08 00:51:53;;;;;;;21.03;11.70;;;;;;;27.83;63.52;100268.44;5064316;28;20060;-60
2022/07/08 00:54:24;;;;;;;26.40;12.17;;;;;;;27.89;63.54;100271.44;5064021;28;20198;-60
2022/07/08 00:56:55;;;;;;;28.37;12.03;;;;;;;27.76;62.84;100246.66;5064044;28;20053;-59
2022/07/08 00:59:28;;;;;;;19.27;11.10;;;;;;;27.86;62.82;100260.97;5064066;28;20059;-60
2022/07/08 01:01:59;;;;;;;22.07;11.07;;;;;;;28.06;63.56;100261.03;5064662;28;20061;-60
2022/07/08 01:04:30;;;;;;;24.23;11.07;;;;;;;28.08;62.75;100267.09;5067624;28;20066;-59
2022/07/08 01:07:01;;;;;;;22.10;12.13;;;;;;;28.12;63.03;100263.16;5067700;28;20381;-60
2022/07/08 01:09:32;;;;;;;20.70;11.33;;;;;;;28.16;63.59;100268.13;5068654;28;20209;-61
2022/07/08 01:12:02;;;;;;;30.53;10.87;;;;;;;28.23;64.12;100267.56;5068781;28;20049;-60
2022/07/08 01:14:35;;;;;;;20.13;10.50;;;;;;;28.34;62.82;100260.22;5068627;28;20322;-59
2022/07/08 01:17:05;;;;;;;22.23;10.93;;;;;;;28.35;63.13;100259.22;5068444;28;20371;-60
2022/07/08 01:19:36;;;;;;;28.77;12.13;;;;;;;28.54;63.37;100260.28;5068126;28;20052;-61
2022/07/08 01:22:08;;;;;;;24.10;11.53;;;;;;;28.59;62.68;100252.63;5068388;28;20045;-61
2022/07/08 01:24:39;;;;;;;26.20;11.03;;;;;;;28.57;62.09;100254.59;5068247;28;20111;-60
2022/07/08 01:27:10;;;;;;;29.73;12.60;;;;;;;28.55;61.61;100245.84;5068150;28;20107;-60
2022/07/08 01:29:40;;;;;;;26.83;11.83;;;;;;;28.55;61.05;100245.84;5068243;28;20337;-61
2022/07/08 01:32:11;;;;;;;26.60;11.07;;;;;;;28.62;61.61;100236.22;5068405;28;20087;-60
2022/07/08 01:34:41;;;;;;;21.00;11.10;;;;;;;28.60;61.34;100240.88;5068397;28;20098;-59
2022/07/08 01:37:14;;;;;;;18.77;10.63;;;;;;;28.63;60.68;100232.56;5068100;28;20053;-60
2022/07/08 01:39:49;;;;;;;20.13;10.30;;;;;;;28.70;60.70;100233.66;5068515;28;20110;-61
2022/07/08 01:42:20;;;;;;;26.87;11.10;;;;;;;28.39;59.83;100171.97;5068188;28;20045;-60
2022/07/08 01:44:50;;;;;;;16.50;9.90;;;;;;;28.86;59.75;100237.63;5067284;28;20300;-60
2022/07/08 01:47:21;;;;;;;17.03;9.87;;;;;;;28.91;59.82;100230.81;5068156;28;20052;-60
2022/07/08 01:49:52;;;;;;;59.37;11.97;;;;;;;28.85;59.68;100215.22;5068042;28;20049;-61
2022/07/08 01:52:24;;;;;;;37.97;11.57;;;;;;;29.03;59.80;100228.78;5067932;28;20055;-60
2022/07/08 01:54:54;;;;;;;21.93;10.60;;;;;;;29.11;59.61;100226.28;5068034;28;20079;-61
2022/07/08 01:57:25;;;;;;;37.47;11.00;;;;;;;29.02;59.34;100205.59;5067626;28;20063;-59
2022/07/08 01:59:56;;;;;;;37.03;13.33;;;;;;;29.27;58.84;100219.41;5067788;28;20326;-60
2022/07/08 02:02:26;;;;;;;21.50;10.37;;;;;;;29.34;58.85;100220.53;5066404;28;20248;-60
2022/07/08 02:04:57;;;;;;;28.97;10.30;;;;;;;29.37;59.41;100225.63;5065336;28;20068;-59
2022/07/08 02:07:31;;;;;;;23.50;11.57;;;;;;;29.45;59.42;100223.03;5067479;28;20335;-58
2022/07/08 02:10:02;;;;;;;23.37;10.30;;;;;;;29.45;57.80;100223.03;5068129;28;20057;-59
2022/07/08 02:12:31;;;;;;;22.53;9.70;;;;;;;29.47;58.46;100215.66;5067971;28;20060;-60
2022/07/08 02:15:03;;;;;;;18.17;9.87;;;;;;;29.49;58.05;100213.66;5066677;28;20049;-59
2022/07/08 02:17:35;;;;;;;73.33;12.50;;;;;;;29.35;58.28;100179.16;5067606;28;20090;-59
2022/07/08 02:20:07;;;;;;;54.23;11.30;;;;;;;29.58;57.70;100206.53;5067298;28;20056;-60
2022/07/08 02:22:39;;;;;;;18.13;9.87;;;;;;;29.69;58.26;100209.06;5067387;28;20264;-60
2022/07/08 02:25:10;;;;;;;18.13;10.03;;;;;;;29.71;58.10;100208.94;5067039;28;20399;-61
2022/07/08 02:27:41;;;;;;;16.37;10.00;;;;;;;29.75;57.95;100213.00;5067267;28;20122;-59
2022/07/08 02:30:13;;;;;;;19.03;9.93;;;;;;;29.74;57.54;100195.16;5067155;28;20218;-62
2022/07/08 02:32:43;;;;;;;26.03;10.23;;;;;;;29.78;57.02;100199.22;5067137;28;20329;-60
2022/07/08 02:35:14;;;;;;;27.83;10.20;;;;;;;29.87;57.37;100201.00;5067368;28;20048;-59
2022/07/08 02:37:46;;;;;;;18.77;11.17;;;;;;;29.94;58.35;100194.03;5066993;28;20228;-60
2022/07/08 02:40:17;;;;;;;77.40;14.03;;;;;;;30.04;57.20;100192.09;5067384;28;20048;-62
2022/07/08 02:42:47;;;;;;;68.00;13.70;;;;;;;30.06;57.55;100195.50;5066909;28;20083;-63
2022/07/08 02:45:18;;;;;;;22.20;10.40;;;;;;;30.08;57.06;100188.13;5066984;28;20064;-60
2022/07/08 02:47:48;;;;;;;26.83;10.30;;;;;;;30.01;56.90;100164.66;5065782;28;20060;-62
2022/07/08 02:50:19;;;;;;;22.77;10.73;;;;;;;30.16;56.75;100187.34;5066566;28;20110;-61
2022/07/08 02:52:51;;;;;;;27.80;10.07;;;;;;;30.20;56.71;100185.19;5066570;28;20072;-61
2022/07/08 02:55:22;;;;;;;15.03;9.53;;;;;;;30.25;55.35;100182.91;5065894;28;20052;-60
2022/07/08 02:57:53;;;;;;;20.40;9.60;;;;;;;29.99;55.54;100137.84;5066280;28;20252;-61
2022/07/08 03:00:24;;;;;;;46.67;11.67;;;;;;;30.12;56.70;100171.66;5065675;28;20056;-61
2022/07/08 03:02:54;;;;;;;20.67;10.30;;;;;;;30.26;56.09;100168.44;5065476;28;20059;-61
2022/07/08 03:05:25;;;;;;;14.03;9.03;;;;;;;30.26;56.58;100163.06;5066516;28;20218;-61
2022/07/08 03:07:57;;;;;;;16.57;9.57;;;;;;;30.26;55.90;100171.97;5066676;28;20044;-60
2022/07/08 03:10:28;;;;;;;21.57;10.70;;;;;;;30.42;56.68;100163.19;5066412;28;20099;-61
2022/07/08 03:12:59;;;;;;;25.83;10.70;;;;;;;30.34;55.01;100160.41;5065972;28;20045;-62
2022/07/08 03:15:29;;;;;;;14.13;8.83;;;;;;;30.36;55.26;100163.81;5066224;28;20052;-62
2022/07/08 03:18:00;;;;;;;20.63;9.80;;;;;;;30.30;54.69;100167.97;5066448;28;20057;-60
2022/07/08 03:20:31;;;;;;;30.10;10.77;;;;;;;30.22;55.75;100156.25;5066414;28;20060;-62
2022/07/08 03:23:03;;;;;;;40.17;11.40;;;;;;;30.29;55.86;100160.88;5066397;28;20052;-61
2022/07/08 03:25:34;;;;;;;45.10;11.90;;;;;;;30.29;55.06;100157.34;5066243;28;20060;-61
2022/07/08 03:28:05;;;;;;;18.33;10.53;;;;;;;30.34;55.84;100154.19;5066276;28;20247;-60
2022/07/08 03:30:35;;;;;;;51.80;12.20;;;;;;;30.37;54.95;100152.00;5065412;28;20068;-60
2022/07/08 03:33:06;;;;;;;32.57;10.63;;;;;;;30.36;55.70;100147.66;5065138;28;20521;-62
2022/07/08 03:35:37;;;;;;;31.53;12.23;;;;;;;30.41;55.19;100156.09;5066069;28;20063;-61
2022/07/08 03:38:09;;;;;;;13.93;9.90;;;;;;;30.38;54.74;100148.34;5066338;28;20067;-60
2022/07/08 03:43:27;;;;;;;15.87;9.80;;;;;;;30.42;54.87;100138.91;5066197;28;20049;-61
2022/07/08 03:45:57;;;;;;;19.27;11.63;;;;;;;30.38;55.15;100137.56;5065787;28;20314;-62
2022/07/08 03:48:33;;;;;;;372.73;33.97;;;;;;;30.43;55.56;100135.25;5065823;28;20224;-62
2022/07/08 03:51:04;;;;;;;22.50;10.27;;;;;;;30.48;55.18;100130.22;5065518;28;20057;-61
2022/07/08 03:53:37;;;;;;;29.57;10.23;;;;;;;30.50;55.34;100125.53;5065634;28;20420;-62
2022/07/08 03:56:07;;;;;;;16.70;10.57;;;;;;;30.48;54.96;100124.81;5056005;28;20067;-61
2022/07/08 03:58:38;;;;;;;23.67;9.97;;;;;;;30.46;55.06;100118.75;5057449;28;20052;-62
2022/07/08 04:01:09;;;;;;;29.13;11.80;;;;;;;30.44;55.84;100123.44;5065075;28;20120;-60
2022/07/08 04:03:40;;;;;;;25.50;10.43;;;;;;;30.44;54.19;100112.66;5065382;28;20048;-61
2022/07/08 04:06:10;;;;;;;16.30;10.07;;;;;;;30.45;55.79;100114.38;5064598;28;20061;-62
2022/07/08 04:08:44;;;;;;;30.67;9.73;;;;;;;30.38;54.91;100115.13;5065078;28;20063;-62
2022/07/08 04:11:14;;;;;;;29.33;10.30;;;;;;;30.30;55.19;100115.91;5065431;28;20389;-61
2022/07/08 04:13:45;;;;;;;18.17;9.43;;;;;;;30.26;55.57;100114.53;5065479;28;20382;-61
2022/07/08 04:16:16;;;;;;;15.80;9.10;;;;;;;30.24;55.15;100116.50;5065393;28;20134;-61
2022/07/08 04:18:46;;;;;;;284.10;27.40;;;;;;;30.22;56.09;100118.50;5065333;28;20060;-62
2022/07/08 04:21:17;;;;;;;78.53;12.70;;;;;;;30.22;56.88;100118.50;5065649;28;20128;-62
2022/07/08 04:23:49;;;;;;;26.67;9.40;;;;;;;30.13;55.99;100108.66;5065032;28;20056;-64
2022/07/08 04:26:19;;;;;;;31.90;9.80;;;;;;;30.07;56.11;100116.34;5065187;28;20121;-62
2022/07/08 04:28:50;;;;;;;75.07;12.90;;;;;;;30.17;56.22;100116.28;5065367;28;20086;-61
2022/07/08 04:31:21;;;;;;;34.10;10.37;;;;;;;30.17;55.78;100115.44;5065081;28;20119;-62
2022/07/08 04:33:53;;;;;;;27.23;9.90;;;;;;;30.17;56.24;100115.44;5063899;28;20083;-61
2022/07/08 04:36:24;;;;;;;26.53;9.93;;;;;;;30.19;56.37;100113.44;5064705;28;20300;-63
2022/07/08 04:38:56;;;;;;;23.50;9.50;;;;;;;30.23;56.28;100114.81;5064110;28;20076;-64
2022/07/08 04:41:27;;;;;;;44.70;11.37;;;;;;;30.14;56.38;100121.16;5064801;28;20053;-62
2022/07/08 04:43:57;;;;;;;20.03;9.03;;;;;;;30.07;55.38;100116.34;5064886;28;20067;-63
2022/07/08 04:46:28;;;;;;;21.77;9.10;;;;;;;30.01;55.82;100122.38;5064132;28;20320;-62
2022/07/08 04:48:58;;;;;;;42.87;10.80;;;;;;;29.91;56.55;100129.69;5033720;28;20066;-62
2022/07/08 04:51:29;;;;;;;22.87;9.40;;;;;;;29.92;56.46;100128.69;5033402;28;20072;-63
2022/07/08 05:05:55;;;;;;;22.37;9.00;;;;;;;29.87;56.01;100115.66;5034142;28;20329;-62
2022/07/08 05:08:30;;;;;;;32.40;9.53;;;;;;;29.89;56.21;100123.59;5019728;28;20077;-61
2022/07/08 05:11:01;;;;;;;32.77;10.70;;;;;;;29.94;56.64;100115.06;5013176;28;20096;-60
2022/07/08 05:13:32;;;;;;;25.50;10.07;;;;;;;29.95;56.85;100117.59;5025607;28;20183;-61
2022/07/08 05:16:10;;;;;;;118.33;13.93;;;;;;;29.99;56.75;100118.16;5040469;28;20111;-62
2022/07/08 05:18:42;;;;;;;54.23;11.10;;;;;;;29.93;56.23;100118.75;5064471;28;20053;-61
2022/07/08 05:21:14;;;;;;;13.93;9.00;;;;;;;29.89;55.81;100113.66;5061103;28;20057;-62
2022/07/08 05:23:47;;;;;;;29.23;9.53;;;;;;;29.79;56.18;100112.06;5054179;28;20125;-59
2022/07/08 05:26:18;;;;;;;23.10;10.50;;;;;;;29.70;55.77;100096.81;5053238;28;20060;-62
2022/07/08 05:28:55;;;;;;;24.37;9.13;;;;;;;29.75;56.07;100122.28;5054183;28;20057;-61
2022/07/08 05:31:25;;;;;;;17.77;9.10;;;;;;;29.71;56.90;100103.91;5053877;28;20221;-61
2022/07/08 05:33:56;;;;;;;19.53;10.37;;;;;;;29.73;56.81;100109.97;5054269;28;20130;-62
2022/07/08 05:36:27;;;;;;;52.40;12.27;;;;;;;29.83;56.67;100116.13;5054053;28;20079;-61
2022/07/08 05:39:01;;;;;;;20.80;9.87;;;;;;;29.84;56.40;100117.84;5053451;28;20116;-63
2022/07/08 05:41:32;;;;;;;25.47;9.87;;;;;;;29.87;56.06;100120.22;5055066;28;20060;-62
2022/07/08 05:44:09;;;;;;;22.20;8.83;;;;;;;29.80;55.47;100102.97;5056838;28;20044;-61
2022/07/08 05:46:40;;;;;;;21.53;10.10;;;;;;;29.74;55.74;100103.59;5056548;28;20048;-63
2022/07/08 05:49:11;;;;;;;24.27;9.17;;;;;;;29.81;55.88;100102.00;5055099;28;20057;-61
2022/07/08 05:51:42;;;;;;;36.73;10.13;;;;;;;29.77;55.50;100097.91;5059427;28;20059;-58
2022/07/08 05:54:14;;;;;;;44.70;10.53;;;;;;;29.76;55.16;100090.84;5060035;28;20076;-62
2022/07/08 05:56:48;;;;;;;63.50;12.20;;;;;;;29.82;55.80;100095.59;5059324;28;20083;-63
2022/07/08 05:59:19;;;;;;;34.20;10.10;;;;;;;29.88;55.78;100084.22;5060146;28;20048;-62
2022/07/08 06:01:50;;;;;;;25.80;10.03;;;;;;;29.83;55.49;100081.97;5059725;28;20359;-63
2022/07/08 06:04:20;;;;;;;30.80;9.57;;;;;;;29.87;55.30;100082.50;5057948;28;20052;-62
2022/07/08 06:06:51;;;;;;;46.17;10.30;;;;;;;29.85;54.87;100084.50;5057544;28;20057;-61
2022/07/08 06:09:24;;;;;;;27.40;9.03;;;;;;;29.70;55.20;100080.66;5057417;28;20059;-62
2022/07/08 06:11:55;;;;;;;18.97;9.20;;;;;;;29.66;55.30;100083.66;5056294;28;20049;-62
2022/07/08 06:14:25;;;;;;;17.93;8.80;;;;;;;29.61;55.71;100083.25;5057219;28;20066;-62
2022/07/08 06:16:56;;;;;;;23.10;9.27;;;;;;;29.64;56.35;100088.31;5057033;28;20060;-61
2022/07/08 06:19:27;;;;;;;36.70;9.60;;;;;;;29.67;56.09;100093.41;5063308;28;20061;-62
2022/07/08 06:21:57;;;;;;;17.53;8.93;;;;;;;29.60;55.39;100086.91;5052746;28;20067;-62
2022/07/08 06:24:30;;;;;;;19.23;8.63;;;;;;;29.48;55.71;100088.16;5061002;28;20060;-61
2022/07/08 06:27:00;;;;;;;21.73;8.63;;;;;;;29.47;57.18;100086.44;5058818;28;20049;-62
2022/07/08 06:29:31;;;;;;;27.03;9.67;;;;;;;29.42;56.23;100084.19;5059042;28;20143;-61
2022/07/08 06:32:02;;;;;;;20.03;9.83;;;;;;;29.50;56.66;100094.22;5060074;28;20084;-61
2022/07/08 06:34:32;;;;;;;19.37;10.07;;;;;;;29.51;57.71;100093.22;5060448;28;20061;-61
2022/07/08 06:37:03;;;;;;;18.47;9.93;;;;;;;29.48;57.02;100093.53;5060620;28;20497;-62
2022/07/08 06:39:36;;;;;;;19.93;9.90;;;;;;;29.44;56.98;100092.97;5060668;28;20060;-62
2022/07/08 06:42:07;;;;;;;16.47;8.73;;;;;;;29.35;56.63;100093.88;5060481;28;20052;-61
2022/07/08 06:44:38;;;;;;;16.33;8.97;;;;;;;29.24;56.84;100089.56;5057134;28;20103;-61
2022/07/08 06:47:11;;;;;;;29.00;10.43;;;;;;;29.29;57.45;100088.28;5053370;28;20215;-60
2022/07/08 06:49:49;;;;;;;25.93;10.60;;;;;;;29.24;57.20;100092.25;5058409;28;20052;-62
2022/07/08 06:52:19;;;;;;;21.60;10.70;;;;;;;29.24;57.68;100092.25;5058660;28;20053;-61
2022/07/08 06:54:52;;;;;;;20.70;10.37;;;;;;;29.22;56.42;100088.84;5044232;28;20222;-61
2022/07/08 06:57:22;;;;;;;21.97;10.33;;;;;;;29.20;57.79;100088.16;5040902;28;20065;-61
2022/07/08 06:59:53;;;;;;;22.50;10.33;;;;;;;29.13;57.30;100068.25;5051073;28;20302;-63
2022/07/08 07:02:44;;;;;;;18.70;10.07;;;;;;;29.16;57.89;100081.38;5049464;28;20145;-61
2022/07/08 07:05:14;;;;;;;28.40;9.83;;;;;;;29.17;57.48;100075.00;5060527;28;20076;-61
2022/07/08 07:07:45;;;;;;;17.07;10.50;;;;;;;29.11;57.16;100075.63;5044241;28;20064;-61
2022/07/08 07:10:17;;;;;;;39.37;11.33;;;;;;;29.02;57.87;100071.94;5040423;28;20264;-61
2022/07/08 07:12:48;;;;;;;17.07;10.60;;;;;;;28.88;57.10;100071.56;5058417;28;20045;-63
2022/07/08 07:15:19;;;;;;;36.00;12.03;;;;;;;28.75;57.15;100070.06;5056831;28;20057;-62
2022/07/08 07:17:52;;;;;;;30.10;11.37;;;;;;;28.74;57.41;100075.59;5055155;28;20131;-62
2022/07/08 07:20:23;;;;;;;23.17;11.03;;;;;;;28.73;57.52;100072.06;5046050;28;20060;-62
2022/07/08 07:22:53;;;;;;;132.47;16.53;;;;;;;28.69;58.23;100065.28;5060470;28;20065;-63
2022/07/08 07:25:26;;;;;;;32.10;11.90;;;;;;;28.62;57.16;100068.69;5059657;28;20102;-62
2022/07/08 07:27:56;;;;;;;21.13;11.17;;;;;;;28.49;58.23;100063.66;5059663;28;20064;-61
2022/07/08 07:30:27;;;;;;;17.60;11.27;;;;;;;28.45;58.02;100067.59;5013933;28;20057;-60
2022/07/08 07:32:58;;;;;;;27.63;12.00;;;;;;;28.49;58.71;100069.03;5052431;28;20048;-62
2022/07/08 07:35:28;;;;;;;23.87;10.97;;;;;;;28.56;58.06;100070.16;5052766;28;20336;-61
2022/07/08 07:37:59;;;;;;;23.20;11.67;;;;;;;28.53;58.10;100068.59;5054662;28;20103;-61
2022/07/08 07:40:31;;;;;;;20.77;11.07;;;;;;;28.54;57.95;100062.22;5053352;28;20060;-62
2022/07/08 07:43:02;;;;;;;53.33;12.90;;;;;;;28.42;58.27;100067.88;5051904;28;20174;-62
2022/07/08 07:45:32;;;;;;;30.77;11.70;;;;;;;28.23;58.15;100053.50;5053904;28;20068;-62
2022/07/08 07:48:03;;;;;;;27.97;13.53;;;;;;;28.25;58.49;100058.72;5054558;28;20120;-61
2022/07/08 07:50:41;;;;;;;179.52;21.88;;;;;;;28.28;58.41;100061.97;5055270;28;20094;-62
2022/07/08 07:53:12;;;;;;;28.17;12.20;;;;;;;28.19;58.74;100052.06;5055529;28;20072;-62
2022/07/08 07:55:44;;;;;;;21.80;12.93;;;;;;;28.17;59.01;100052.22;5054745;28;20084;-61
2022/07/08 07:58:15;;;;;;;21.53;10.70;;;;;;;28.15;58.88;100050.66;5055694;28;20265;-62
2022/07/08 08:00:46;;;;;;;23.37;11.67;;;;;;;28.08;58.42;100054.91;5055528;28;20154;-62
2022/07/08 08:03:17;;;;;;;26.03;11.37;;;;;;;27.93;58.24;100054.50;5055011;28;20348;-61
2022/07/08 08:05:48;;;;;;;17.10;10.87;;;;;;;27.83;58.85;100062.56;5054097;28;20056;-63
2022/07/08 08:08:19;;;;;;;22.70;11.80;;;;;;;27.76;58.75;100061.41;5055095;28;20065;-61
2022/07/08 08:10:52;;;;;;;32.90;11.87;;;;;;;27.72;59.29;100065.34;5054872;28;20702;-62
2022/07/08 08:13:23;;;;;;;19.13;11.93;;;;;;;27.70;60.36;100062.78;5054646;28;20060;-62
2022/07/08 08:15:54;;;;;;;51.43;13.87;;;;;;;27.71;60.04;100067.19;5050919;28;20257;-61
2022/07/08 08:18:25;;;;;;;18.50;11.30;;;;;;;27.75;59.67;100070.44;5052974;28;20297;-61
2022/07/08 08:20:57;;;;;;;26.27;14.10;;;;;;;27.76;59.93;100080.19;5054930;28;20083;-62
2022/07/08 08:23:28;;;;;;;45.13;13.00;;;;;;;27.72;59.69;100078.78;5053604;28;20337;-61
2022/07/08 08:26:02;;;;;;;20.43;11.50;;;;;;;27.52;59.72;100080.59;5053319;28;20065;-62
2022/07/08 08:28:37;;;;;;;37.70;12.47;;;;;;;27.45;60.85;100080.28;5053975;28;20429;-61
2022/07/08 08:31:09;;;;;;;22.97;10.70;;;;;;;27.39;60.84;100085.38;5053223;28;20076;-63
2022/07/08 08:33:42;;;;;;;22.83;10.73;;;;;;;27.27;60.51;100087.31;5053786;28;20060;-61
2022/07/08 08:36:15;;;;;;;32.73;11.17;;;;;;;27.29;60.72;100093.38;5053376;28;20340;-62
2022/07/08 08:38:50;;;;;;;22.77;10.80;;;;;;;27.18;61.01;100088.09;5054016;28;20049;-61
2022/07/08 08:41:28;;;;;;;24.10;10.93;;;;;;;27.14;60.92;100084.00;5054382;28;20040;-61
2022/07/08 08:43:59;;;;;;;20.53;11.00;;;;;;;27.06;61.25;100084.69;5053075;28;20045;-61
2022/07/08 08:46:33;;;;;;;18.23;10.13;;;;;;;26.91;61.20;100086.88;5054758;28;20061;-61
2022/07/08 08:49:06;;;;;;;22.67;11.00;;;;;;;26.77;61.77;100084.53;5054779;28;20049;-60
2022/07/08 08:51:38;;;;;;;24.97;11.03;;;;;;;26.65;62.15;100081.09;5053224;28;20298;-60
2022/07/08 08:54:17;;;;;;;29.23;12.00;;;;;;;26.65;62.60;100086.44;5054243;28;20098;-63
2022/07/08 08:56:56;;;;;;;17.13;10.77;;;;;;;26.58;62.93;100080.75;5054687;28;20052;-60
2022/07/08 08:59:33;;;;;;;;;;;;;;;26.70;62.51;100088.75;5054751;28;20088;-60
2022/07/08 09:02:06;;;;;;;26.02;10.50;;;;;;;26.64;62.55;100085.59;5054766;28;19916;-63
2022/07/08 09:04:40;;;;;;;19.57;11.37;;;;;;;26.65;63.08;100091.81;5054717;28;20356;-63
2022/07/08 09:07:12;;;;;;;34.17;11.83;;;;;;;26.62;63.05;100092.94;5054939;28;20060;-61
2022/07/08 09:09:43;;;;;;;30.10;11.50;;;;;;;26.51;62.76;100092.97;5052555;28;20084;-63
2022/07/08 09:12:25;;;;;;;19.00;10.90;;;;;;;26.49;62.85;100096.78;5056513;28;20121;-60
2022/07/08 09:15:00;;;;;;;34.23;13.90;;;;;;;26.50;63.37;100099.31;5050157;28;20057;-61
2022/07/08 09:17:31;;;;;;;34.07;12.17;;;;;;;26.39;63.64;100100.22;5056260;28;20317;-60
2022/07/08 09:20:02;;;;;;;18.67;11.10;;;;;;;26.28;63.66;100104.78;5058085;28;20084;-61
2022/07/08 09:22:33;;;;;;;22.47;10.63;;;;;;;25.97;64.15;100102.88;5012529;28;20053;-61
2022/07/08 09:25:04;;;;;;;31.17;11.03;;;;;;;25.51;64.64;100071.88;5055416;28;20122;-61
2022/07/08 09:27:37;;;;;;;65.13;13.57;;;;;;;25.54;65.25;100113.56;5055965;28;20247;-62
2022/07/08 09:30:11;;;;;;;17.97;8.90;;;;;;;25.46;65.31;100113.31;5059057;28;20053;-63
2022/07/08 09:32:42;;;;;;;55.60;11.40;;;;;;;25.33;65.77;100110.78;5043522;28;20310;-62
2022/07/08 09:35:14;;;;;;;25.33;9.90;;;;;;;25.27;66.23;100109.47;5041453;28;20103;-62
2022/07/08 09:37:52;;;;;;;38.53;12.13;;;;;;;25.20;66.07;100108.25;5044423;28;20315;-62
2022/07/08 09:40:24;;;;;;;22.23;10.27;;;;;;;25.15;66.43;100115.75;5043398;28;20053;-62
2022/07/08 09:42:57;;;;;;;31.17;10.57;;;;;;;25.06;66.70;100127.19;5057452;28;20053;-63
2022/07/08 09:45:35;;;;;;;19.37;10.63;;;;;;;24.93;67.05;100125.47;5061058;28;20064;-62
2022/07/08 09:48:09;;;;;;;20.03;10.33;;;;;;;24.78;67.31;100118.66;5025821;28;20056;-62
2022/07/08 09:50:42;;;;;;;19.40;9.53;;;;;;;24.65;67.84;100131.28;5042196;28;20065;-62
2022/07/08 09:53:35;;;;;;;19.47;10.60;;;;;;;24.41;68.79;100137.50;5047757;28;20045;-62
2022/07/08 09:56:07;;;;;;;20.13;11.03;;;;;;;24.14;69.08;100123.56;5054718;28;20049;-62
2022/07/08 09:58:48;;;;;;;18.23;10.10;;;;;;;24.13;69.75;100143.22;5055409;28;20326;-63
2022/07/08 10:01:20;;;;;;;22.63;10.47;;;;;;;23.95;70.01;100140.09;5061078;28;20056;-62
2022/07/08 10:03:54;;;;;;;26.43;10.80;;;;;;;23.84;70.45;100148.91;5061258;28;20336;-61
2022/07/08 10:06:26;;;;;;;35.40;11.23;;;;;;;23.66;70.68;100151.94;5060797;28;20056;-61
2022/07/08 10:08:58;;;;;;;32.70;11.47;;;;;;;23.49;71.00;100165.63;5059527;28;20322;-61
2022/07/08 10:11:30;;;;;;;22.73;11.07;;;;;;;23.28;71.43;100161.81;5060957;28;20061;-61
2022/07/08 10:14:06;;;;;;;19.10;10.77;;;;;;;23.06;71.64;100167.81;5040754;28;20057;-61
2022/07/08 10:16:44;;;;;;;21.30;11.73;;;;;;;22.88;71.96;100164.59;5040662;28;20318;-61
2022/07/08 10:19:21;;;;;;;20.70;11.10;;;;;;;22.81;71.97;100169.47;5041206;28;20061;-62
2022/07/08 10:21:55;;;;;;;42.43;12.97;;;;;;;22.67;72.51;100178.44;5050426;28;20240;-61
2022/07/08 10:24:30;;;;;;;25.10;11.63;;;;;;;22.62;72.59;100169.91;5053555;28;20065;-61
2022/07/08 10:27:03;;;;;;;35.57;12.10;;;;;;;22.55;72.76;100168.59;5040274;28;20056;-62
2022/07/08 10:29:39;;;;;;;27.50;11.57;;;;;;;22.46;72.64;100170.06;5056308;28;20348;-62
2022/07/08 10:32:38;;;;;;;18.37;11.10;;;;;;;22.40;72.60;100176.66;5056967;28;20096;-61
2022/07/08 10:35:15;;;;;;;20.97;12.03;;;;;;;22.34;72.70;100176.22;5056269;28;20053;-61
2022/07/08 10:37:53;;;;;;;20.83;12.13;;;;;;;22.22;73.12;100177.91;5056650;28;20705;-61
2022/07/08 10:41:20;;;;;;;19.40;11.70;;;;;;;22.06;73.51;100190.47;5055937;28;20064;-60
2022/07/08 10:43:55;;;;;;;22.63;12.10;;;;;;;21.89;74.34;100191.56;4991397;28;20093;-61
2022/07/08 10:46:53;;;;;;;28.92;12.73;;;;;;;21.69;75.23;100206.13;5054771;28;20323;-60
2022/07/08 10:49:40;;;;;;;29.23;12.40;;;;;;;21.59;75.77;100210.31;5054409;28;20064;-62
2022/07/08 10:52:13;;;;;;;18.13;11.80;;;;;;;21.46;76.16;100213.75;5056036;28;20144;-60
2022/07/08 10:54:46;;;;;;;23.43;12.07;;;;;;;21.45;76.41;100217.38;5055317;28;20052;-61
2022/07/08 10:57:28;;;;;;;23.27;11.90;;;;;;;21.39;76.88;100220.44;5053773;28;20422;-62
2022/07/08 11:00:11;;;;;;;22.60;12.43;;;;;;;21.34;77.10;100219.78;5057124;28;20298;-60
2022/07/08 11:02:48;;;;;;;25.03;11.83;;;;;;;21.30;77.45;100220.94;5056128;28;20312;-60
2022/07/08 11:05:40;;;;;;;20.97;11.30;;;;;;;21.13;77.64;100218.47;5055347;28;20295;-62
2022/07/08 11:08:28;;;;;;;24.33;12.27;;;;;;;21.15;78.09;100227.22;5056566;28;20294;-61
2022/07/08 11:11:04;;;;;;;27.10;15.50;;;;;;;21.05;78.54;100225.09;5055300;28;20603;-60
2022/07/08 11:13:44;;;;;;;24.20;13.27;;;;;;;20.94;78.84;100214.25;5055145;28;20511;-60
2022/07/08 11:16:20;;;;;;;27.50;12.20;;;;;;;20.90;79.25;100220.72;5054489;28;20314;-60
2022/07/08 11:18:54;;;;;;;22.27;11.73;;;;;;;20.85;79.65;100231.63;5055098;28;20367;-60
2022/07/08 11:21:26;;;;;;;26.00;11.63;;;;;;;20.83;79.96;100237.97;5055419;28;20546;-60
2022/07/08 11:23:59;;;;;;;19.83;12.07;;;;;;;20.82;80.02;100226.50;5056259;28;20322;-60
2022/07/08 11:26:31;;;;;;;26.00;11.43;;;;;;;20.76;80.14;100226.84;5055520;28;20297;-60
2022/07/08 11:29:04;;;;;;;20.77;11.53;;;;;;;20.71;80.38;100233.38;5055885;28;20362;-61
2022/07/08 11:31:35;;;;;;;22.10;12.50;;;;;;;20.66;80.72;100242.44;5054182;28;20398;-62
2022/07/08 11:34:21;;;;;;;24.13;13.07;;;;;;;20.63;81.04;100237.31;5055239;28;20299;-60
2022/07/08 11:36:58;;;;;;;19.50;11.83;;;;;;;20.61;81.00;100233.91;5055070;28;20343;-60
2022/07/08 11:39:29;;;;;;;24.73;11.50;;;;;;;20.58;81.10;100228.78;5055088;28;20306;-60
2022/07/08 11:42:02;;;;;;;18.17;11.40;;;;;;;20.30;81.28;100192.34;5056050;28;20288;-60
2022/07/08 11:44:33;;;;;;;19.73;12.30;;;;;;;20.45;81.15;100243.69;5056275;28;20330;-60
2022/07/08 11:47:05;;;;;;;20.07;11.33;;;;;;;20.36;81.69;100228.28;5055725;28;20311;-60
2022/07/08 11:49:43;;;;;;;16.00;10.57;;;;;;;20.36;81.96;100230.94;5055873;28;20300;-60
2022/07/08 11:52:16;;;;;;;23.13;12.47;;;;;;;20.24;82.00;100225.41;5055852;28;20283;-60